Terminal Aerodrome Forecast
Issued by NWS

Home | Current Version | Previous Version | Text Only | Print | Product List | Glossary On
Versions: 1 2 3 4 5 6 7 8 9 10 11 12 13 14 15 16 17
247
FTUS46 KMTR 180546
TAFOAK
TAF
KOAK 180546Z 1806/1912 03004KT P6SM SCT060 BKN150
     FM181200 14010KT P6SM OVC050
     FM181800 16018KT 6SM -RA BR OVC060
     FM182300 15020G30KT 4SM RA BR OVC020
     FM190000 27015G25KT 5SM SHRA BR OVC015
     FM190600 24015KT 6SM -SHRA BR OVC015=

USA.gov is the U.S. government's official web portal to all federal, state and local government web resources and services.